YAPO weather

Apollo Bay Airport
Victoria, Australia

Public forecast

Using degrees Celsius for public forecast. Weather courtesy of forecast.io.

METAR (pilot weather report)

Closest report is Avalon Airport, 58.3 nm (107.9 km) NE. Retrieved 2019/03/26 21:30 UTC (29 minutes ago):

YMAV 262130Z AUTO 31005KT 9999 // NCD 10/08 Q1024 RF00.0/000.0

TAF (pilot weather forecast)

Closest forecast is Avalon Airport, 58.3 nm (107.9 km) NE. Retrieved 2019/03/26 18:00 UTC (4 hours ago):

TAF YMAV 261707Z 2618/2718 30007KT 9999 SCT035 BECMG 2701/2703 11009KT CAVOK BECMG 2711/2713 33005KT CAVOK